RKSS/GMP METAR and TAF weather

Enter ICAO airport designator
Station Type Date Time Source
RKSS METAR 2021/03/08 14:00 UTC NOAA

RKSS 081400Z 30001KT CAVOK 02/00 Q1026 NOSIG


Station Type Date Time Source
RKSS Decoded METAR 2021/03/08 14:00 UTC NOAA

Seoul / Kimp'O International Airport, Korea, South (RKSS) 37-33N 126-48E 18M
Mar 08, 2021 - 09:00 AM EST / 2021.03.08 1400 UTC
Wind: from the WNW (300 degrees) at 1 MPH (1 KT):0
Visibility: greater than 7 mile(s):0
Temperature: 35 F (2 C)
Dew Point: 32 F (0 C)
Relative Humidity: 86%
Pressure (altimeter): 30.30 in. Hg (1026 hPa)
ob: RKSS 081400Z 30001KT CAVOK 02/00 Q1026 NOSIG
cycle: 14

Station Type Date Time Source
RKSS TAF 2021/03/08 12:09 UTC NOAA

TAF RKSS 081100Z 0812/0918 06005KT 6000 NSC TNM02/0821Z TX11/0906Z
BECMG 0817/0818 3500 BR
BECMG 0820/0821 2000
BECMG 0900/0901 27007KT 6000 NSW
BECMG 0914/0915 06005KT 3500 BR
BECMG 0917/0918 2000

Example: see airport list